createdAt,value
2018-04-14T00:00:26.820Z,16.80
2018-04-14T00:02:54.904Z,15.37
2018-04-14T00:05:22.981Z,16.00
2018-04-14T00:07:51.967Z,16.37
2018-04-14T00:10:20.037Z,15.77
2018-04-14T00:12:48.099Z,16.97
2018-04-14T00:15:16.151Z,16.90
2018-04-14T00:17:44.202Z,16.70
2018-04-14T00:20:13.037Z,16.90
2018-04-14T00:22:41.731Z,16.10
2018-04-14T00:25:09.884Z,14.87
2018-04-14T00:27:37.952Z,14.57
2018-04-14T00:30:06.015Z,13.03
2018-04-14T00:32:34.842Z,13.77
2018-04-14T00:35:04.059Z,14.53
2018-04-14T00:37:32.116Z,14.80
2018-04-14T00:40:00.191Z,13.63
2018-04-14T00:42:28.255Z,14.60
2018-04-14T00:44:56.316Z,14.10
2018-04-14T00:47:24.375Z,14.20
2018-04-14T00:49:53.155Z,14.33
2018-04-14T00:52:21.216Z,15.43
2018-04-14T00:54:49.286Z,15.17
2018-04-14T00:57:19.771Z,15.47
2018-04-14T00:59:47.850Z,18.17
2018-04-14T01:02:16.683Z,16.67
2018-04-14T01:04:44.783Z,16.13
2018-04-14T01:07:12.867Z,16.07
2018-04-14T01:09:40.965Z,15.33
2018-04-14T01:12:09.796Z,15.87
2018-04-14T01:14:38.016Z,15.60
2018-04-14T01:17:06.887Z,16.27
2018-04-14T01:19:36.137Z,15.37
2018-04-14T01:22:04.205Z,15.90
2018-04-14T01:24:33.555Z,15.57
2018-04-14T01:27:01.617Z,15.73
2018-04-14T01:29:29.688Z,15.27
2018-04-14T01:31:57.744Z,13.80
2018-04-14T01:34:29.030Z,14.17
2018-04-14T01:36:57.894Z,13.57
2018-04-14T01:39:25.970Z,13.77
2018-04-14T01:41:54.051Z,13.83
2018-04-14T01:44:23.024Z,13.50
2018-04-14T01:46:51.799Z,14.90
2018-04-14T01:49:19.872Z,14.77
2018-04-14T01:51:47.930Z,14.90
2018-04-14T01:54:15.988Z,13.80
2018-04-14T01:56:44.061Z,13.47
2018-04-14T01:59:12.127Z,13.23
2018-04-14T02:01:40.214Z,12.93
2018-04-14T02:04:08.427Z,13.63
2018-04-14T02:06:36.518Z,13.83
2018-04-14T02:09:05.350Z,13.37
2018-04-14T02:11:33.420Z,13.50
2018-04-14T02:14:02.255Z,13.80
2018-04-14T02:16:30.338Z,13.80
2018-04-14T02:18:59.220Z,13.07
2018-04-14T02:21:27.428Z,13.20
2018-04-14T02:23:55.486Z,12.90
2018-04-14T02:26:23.572Z,13.23
2018-04-14T02:28:51.657Z,13.10
2018-04-14T02:31:19.742Z,12.33
2018-04-14T02:33:47.821Z,12.30
2018-04-14T02:36:17.477Z,11.27
2018-04-14T02:38:45.599Z,11.77
2018-04-14T02:41:13.650Z,11.67
2018-04-14T02:43:41.819Z,10.90
2018-04-14T02:46:13.096Z,11.23
2018-04-14T02:48:41.170Z,10.67
2018-04-14T02:51:09.253Z,10.77
2018-04-14T02:53:38.186Z,10.53
2018-04-14T02:56:06.279Z,11.10
2018-04-14T02:58:34.312Z,11.30
2018-04-14T03:01:03.228Z,11.70
2018-04-14T03:03:31.292Z,12.30
2018-04-14T03:05:59.503Z,11.40
2018-04-14T03:08:27.560Z,12.10
2018-04-14T03:10:55.632Z,11.73
2018-04-14T03:13:23.728Z,11.67
2018-04-14T03:15:51.837Z,11.57
2018-04-14T03:18:20.656Z,11.27
2018-04-14T03:20:48.720Z,11.40
2018-04-14T03:23:16.780Z,10.70
2018-04-14T03:25:44.839Z,11.17
2018-04-14T03:28:14.612Z,11.10
2018-04-14T03:30:42.684Z,11.23
2018-04-14T03:33:10.759Z,11.17
2018-04-14T03:35:39.792Z,11.40
2018-04-14T03:38:07.848Z,11.20
2018-04-14T03:40:36.683Z,11.27
2018-04-14T03:43:04.747Z,12.23
2018-04-14T03:45:32.808Z,11.23
2018-04-14T03:48:00.876Z,11.17
2018-04-14T03:50:28.948Z,11.00
2018-04-14T03:52:57.016Z,11.97
2018-04-14T03:55:25.086Z,11.03
2018-04-14T03:57:53.157Z,12.43
2018-04-14T04:00:21.304Z,12.07
2018-04-14T04:02:50.148Z,12.50
2018-04-14T04:05:18.230Z,13.07
2018-04-14T04:07:46.288Z,12.77
2018-04-14T04:10:14.414Z,14.00
2018-04-14T04:12:43.244Z,14.63
2018-04-14T04:15:11.306Z,13.63
2018-04-14T04:17:39.375Z,15.20
2018-04-14T04:20:19.355Z,15.50
2018-04-14T04:22:59.131Z,14.33
2018-04-14T04:25:39.079Z,13.73
2018-04-14T04:28:08.037Z,14.20
2018-04-14T04:30:36.068Z,13.87
2018-04-14T04:33:04.171Z,13.10
2018-04-14T04:35:32.233Z,12.33
2018-04-14T04:38:00.937Z,13.13
2018-04-14T04:40:29.389Z,12.77
2018-04-14T04:42:57.476Z,13.40
2018-04-14T04:45:25.523Z,13.37
2018-04-14T04:47:53.575Z,14.13
2018-04-14T04:50:22.464Z,13.83
2018-04-14T04:52:51.282Z,14.00
2018-04-14T04:55:19.414Z,13.00
2018-04-14T04:57:47.520Z,12.80
2018-04-14T05:00:15.608Z,13.47
2018-04-14T05:02:43.679Z,12.70
2018-04-14T05:05:11.781Z,12.30
2018-04-14T05:07:39.879Z,12.43
2018-04-14T05:10:07.908Z,11.70
2018-04-14T05:12:35.970Z,11.07
2018-04-14T05:15:04.033Z,12.50
2018-04-14T05:17:32.108Z,12.80
2018-04-14T05:20:00.176Z,12.07
2018-04-14T05:22:28.290Z,12.20
2018-04-14T05:24:57.312Z,12.47
2018-04-14T05:27:25.378Z,11.67
2018-04-14T05:29:53.464Z,12.23
2018-04-14T05:32:21.531Z,14.87
2018-04-14T05:34:49.587Z,13.77
2018-04-14T05:37:17.668Z,12.60
2018-04-14T05:39:45.721Z,13.80
2018-04-14T05:42:18.141Z,12.77
2018-04-14T05:44:46.193Z,13.80
2018-04-14T05:47:14.272Z,13.00
2018-04-14T05:49:42.330Z,12.93
2018-04-14T05:52:10.398Z,14.43
2018-04-14T05:54:38.452Z,13.87
2018-04-14T05:57:07.366Z,14.90
2018-04-14T05:59:35.419Z,19.23
2018-04-14T06:02:03.740Z,19.73
2018-04-14T06:04:31.800Z,24.70
2018-04-14T06:06:59.859Z,24.90
2018-04-14T06:09:27.921Z,19.53
2018-04-14T06:11:55.994Z,19.93
2018-04-14T06:14:24.049Z,19.43
2018-04-14T06:16:52.103Z,16.40
2018-04-14T06:19:20.932Z,15.50
2018-04-14T06:21:49.001Z,14.93
2018-04-14T06:24:17.062Z,15.53
2018-04-14T06:26:45.120Z,15.17
2018-04-14T06:29:13.218Z,17.20
2018-04-14T06:31:41.278Z,16.53
2018-04-14T06:34:09.343Z,16.43
2018-04-14T06:36:37.404Z,16.07
2018-04-14T06:39:06.251Z,15.13
2018-04-14T06:41:34.311Z,15.80
2018-04-14T06:44:04.805Z,15.77
2018-04-14T06:46:33.610Z,15.97
2018-04-14T06:49:02.458Z,16.40
2018-04-14T06:51:32.216Z,14.30
2018-04-14T06:54:00.285Z,14.17
2018-04-14T06:56:28.352Z,13.60
2018-04-14T06:58:56.559Z,15.00
2018-04-14T07:01:24.603Z,13.80
2018-04-14T07:03:52.683Z,14.03
2018-04-14T07:06:20.872Z,13.97
2018-04-14T07:08:48.949Z,13.03
2018-04-14T07:11:17.003Z,14.23
2018-04-14T07:13:45.087Z,12.40
2018-04-14T07:16:13.215Z,12.13
2018-04-14T07:18:41.288Z,11.87
2018-04-14T07:21:09.339Z,11.87
2018-04-14T07:23:37.728Z,11.10
2018-04-14T07:26:05.787Z,10.50
2018-04-14T07:28:33.868Z,9.90
2018-04-14T07:31:01.927Z,9.27
2018-04-14T07:33:30.776Z,9.50
2018-04-14T07:35:58.831Z,8.50
2018-04-14T07:38:26.891Z,7.53
2018-04-14T07:40:54.950Z,7.43
2018-04-14T07:43:23.011Z,6.90
2018-04-14T07:45:51.058Z,7.70
2018-04-14T07:48:19.887Z,6.40
2018-04-14T07:50:47.941Z,5.43
2018-04-14T07:53:16.012Z,4.63
2018-04-14T07:55:44.070Z,3.80
2018-04-14T07:58:12.902Z,3.93
2018-04-14T08:00:40.970Z,2.80
2018-04-14T08:03:09.043Z,2.40
2018-04-14T08:05:37.104Z,2.60
2018-04-14T08:08:05.162Z,3.10
2018-04-14T08:10:33.224Z,3.00
2018-04-14T08:13:01.279Z,3.00
2018-04-14T08:15:30.109Z,2.33
2018-04-14T08:17:58.171Z,1.07
2018-04-14T08:20:26.232Z,1.70
2018-04-14T08:22:54.305Z,1.40
2018-04-14T08:25:22.369Z,1.73
2018-04-14T08:27:50.432Z,1.60
2018-04-14T08:30:18.508Z,1.30
2018-04-14T08:32:46.597Z,1.80
2018-04-14T08:35:14.656Z,8.47
2018-04-14T08:37:42.717Z,1.60
2018-04-14T08:40:10.775Z,1.70
2018-04-14T08:42:39.609Z,1.73
2018-04-14T08:45:07.676Z,1.50
2018-04-14T08:47:35.730Z,1.80
2018-04-14T08:50:03.790Z,1.70
2018-04-14T08:52:31.862Z,1.50
2018-04-14T08:54:59.915Z,1.50
2018-04-14T08:57:28.741Z,2.00
2018-04-14T08:59:56.800Z,2.20
2018-04-14T09:02:24.871Z,1.30
2018-04-14T09:04:52.934Z,1.37
2018-04-14T09:07:21.072Z,1.20
2018-04-14T09:09:49.916Z,1.23
2018-04-14T09:12:17.961Z,1.40
2018-04-14T09:14:46.032Z,1.10
2018-04-14T09:17:14.108Z,1.07
2018-04-14T09:19:42.181Z,1.43
2018-04-14T09:22:10.246Z,1.10
2018-04-14T09:24:38.332Z,1.90
2018-04-14T09:27:06.405Z,1.50
2018-04-14T09:29:35.251Z,1.03
2018-04-14T09:32:03.313Z,0.90
2018-04-14T09:34:31.376Z,0.90
2018-04-14T09:36:59.441Z,1.20
2018-04-14T09:39:27.509Z,1.20
2018-04-14T09:41:55.571Z,1.20
2018-04-14T09:44:23.639Z,1.20
2018-04-14T09:46:51.708Z,11.37
2018-04-14T09:49:19.824Z,1.63
2018-04-14T09:51:47.850Z,2.43
2018-04-14T09:54:16.076Z,0.87
2018-04-14T09:56:44.917Z,0.70
2018-04-14T09:59:12.989Z,0.98
2018-04-14T10:01:55.933Z,0.90
2018-04-14T10:04:24.004Z,0.90
2018-04-14T10:06:52.071Z,0.60
2018-04-14T10:09:20.143Z,0.85
2018-04-14T10:11:48.208Z,1.02
2018-04-14T10:14:16.283Z,0.65
2018-04-14T10:16:44.359Z,0.70
2018-04-14T10:19:12.427Z,0.70
2018-04-14T10:21:40.496Z,1.00
2018-04-14T10:24:08.570Z,0.75
2018-04-14T10:26:36.653Z,0.75
2018-04-14T10:29:04.731Z,0.77
2018-04-14T10:31:32.782Z,0.70
2018-04-14T10:34:00.842Z,0.77
2018-04-14T10:36:28.896Z,0.73
2018-04-14T10:38:56.942Z,2.20
2018-04-14T10:41:25.064Z,1.07
2018-04-14T10:43:53.216Z,4.50
2018-04-14T10:46:21.259Z,0.90
2018-04-14T10:48:49.332Z,0.87
2018-04-14T10:51:17.406Z,0.90
2018-04-14T10:53:45.452Z,1.10
2018-04-14T10:56:13.539Z,1.20
2018-04-14T10:58:41.621Z,0.90
2018-04-14T11:01:09.698Z,1.00
2018-04-14T11:03:38.307Z,1.23
2018-04-14T11:06:07.923Z,1.00
2018-04-14T11:08:35.989Z,1.90
2018-04-14T11:11:04.063Z,1.00
2018-04-14T11:13:32.243Z,1.00
2018-04-14T11:16:00.313Z,1.23
2018-04-14T11:18:28.383Z,1.00
2018-04-14T11:20:56.460Z,1.30
2018-04-14T11:23:24.521Z,0.90
2018-04-14T11:25:52.600Z,1.07
2018-04-14T11:28:20.676Z,1.23
2018-04-14T11:30:48.738Z,1.30
2018-04-14T11:33:16.812Z,1.20
2018-04-14T11:35:44.880Z,1.17
2018-04-14T11:38:12.939Z,1.03
2018-04-14T11:40:41.070Z,1.40
2018-04-14T11:43:09.215Z,1.20
2018-04-14T11:45:38.052Z,1.23
2018-04-14T11:48:06.113Z,1.00
2018-04-14T11:50:34.176Z,0.90
2018-04-14T11:53:02.228Z,1.07
2018-04-14T11:55:31.071Z,1.30
2018-04-14T11:57:59.137Z,1.20
2018-04-14T12:00:27.227Z,1.23
2018-04-14T12:02:55.273Z,1.13
2018-04-14T12:05:23.331Z,0.90
2018-04-14T12:07:52.322Z,1.10
2018-04-14T12:10:21.124Z,1.30
2018-04-14T12:12:49.619Z,1.27
2018-04-14T12:15:17.644Z,1.13
2018-04-14T12:17:45.724Z,1.17
2018-04-14T12:20:13.776Z,1.13
2018-04-14T12:22:42.648Z,1.00
2018-04-14T12:25:10.674Z,1.20
2018-04-14T12:27:38.739Z,1.30
2018-04-14T12:30:06.800Z,1.30
2018-04-14T12:32:34.867Z,1.00
2018-04-14T12:35:05.067Z,0.90
2018-04-14T12:37:33.892Z,1.10
2018-04-14T12:40:01.944Z,1.00
2018-04-14T12:42:30.044Z,1.03
2018-04-14T12:44:58.094Z,0.90
2018-04-14T12:47:26.167Z,0.90
2018-04-14T12:49:54.229Z,1.10
2018-04-14T12:52:22.299Z,1.10
2018-04-14T12:54:50.378Z,1.20
2018-04-14T12:57:18.453Z,1.00
2018-04-14T12:59:46.514Z,1.10
2018-04-14T13:02:14.577Z,1.00
2018-04-14T13:04:43.405Z,1.00
2018-04-14T13:07:11.462Z,1.17
2018-04-14T13:09:39.531Z,1.00
2018-04-14T13:12:07.584Z,1.00
2018-04-14T13:14:35.639Z,0.90
2018-04-14T13:17:04.469Z,0.90
2018-04-14T13:19:32.535Z,0.80
2018-04-14T13:22:00.600Z,1.30
2018-04-14T13:24:28.676Z,1.50
2018-04-14T13:26:56.731Z,1.10
2018-04-14T13:29:24.787Z,1.00
2018-04-14T13:31:52.862Z,1.00
2018-04-14T13:34:20.936Z,0.80
2018-04-14T13:36:49.747Z,0.90
2018-04-14T13:39:17.803Z,1.07
2018-04-14T13:41:45.917Z,2.07
2018-04-14T13:44:13.923Z,1.67
2018-04-14T13:46:42.743Z,1.40
2018-04-14T13:49:10.808Z,1.30
2018-04-14T13:51:38.876Z,1.93
2018-04-14T13:54:06.948Z,1.70
2018-04-14T13:56:34.998Z,3.17
2018-04-14T13:59:03.913Z,1.50
2018-04-14T14:01:31.963Z,2.23
2018-04-14T14:04:00.023Z,1.90
2018-04-14T14:06:28.079Z,1.13
2018-04-14T14:08:56.155Z,0.87
2018-04-14T14:11:24.182Z,1.20
2018-04-14T14:13:52.254Z,1.23
2018-04-14T14:16:20.323Z,6.57
2018-04-14T14:18:48.380Z,1.10
2018-04-14T14:21:16.443Z,1.33
2018-04-14T14:23:44.516Z,3.57
2018-04-14T14:26:12.588Z,1.20
2018-04-14T14:28:41.400Z,2.60
2018-04-14T14:31:09.466Z,1.40
2018-04-14T14:33:37.591Z,1.20
2018-04-14T14:36:05.851Z,1.30
2018-04-14T14:38:33.918Z,1.20
2018-04-14T14:41:01.976Z,1.50
2018-04-14T14:43:30.039Z,1.20
2018-04-14T14:45:58.126Z,1.30
2018-04-14T14:48:26.226Z,1.47
2018-04-14T14:50:54.499Z,1.07
2018-04-14T14:53:23.476Z,1.20
2018-04-14T14:55:51.528Z,1.17
2018-04-14T14:58:19.608Z,1.60
2018-04-14T15:00:47.670Z,1.40
2018-04-14T15:03:15.748Z,1.50
2018-04-14T15:05:43.809Z,1.50
2018-04-14T15:08:11.873Z,1.73
2018-04-14T15:10:39.940Z,1.40
2018-04-14T15:13:08.003Z,1.80
2018-04-14T15:15:36.068Z,2.50
2018-04-14T15:18:04.131Z,2.00
2018-04-14T15:20:32.217Z,2.20
2018-04-14T15:23:00.292Z,1.70
2018-04-14T15:25:28.352Z,2.10
2018-04-14T15:27:56.407Z,2.00
2018-04-14T15:30:24.500Z,2.03
2018-04-14T15:32:52.568Z,1.80
2018-04-14T15:35:20.752Z,1.90
2018-04-14T15:37:48.815Z,1.60
2018-04-14T15:40:16.947Z,1.80
2018-04-14T15:42:44.965Z,2.30
2018-04-14T15:45:13.035Z,1.80
2018-04-14T15:47:41.109Z,1.87
2018-04-14T15:50:09.172Z,2.00
2018-04-14T15:52:37.288Z,2.10
2018-04-14T15:55:05.291Z,2.63
2018-04-14T15:57:33.347Z,3.87
2018-04-14T16:00:01.395Z,4.60
2018-04-14T16:02:29.453Z,4.33
2018-04-14T16:04:57.528Z,2.60
2018-04-14T16:07:25.582Z,3.80
2018-04-14T16:09:53.658Z,2.63
2018-04-14T16:12:21.712Z,3.30
2018-04-14T16:14:49.789Z,2.83
2018-04-14T16:17:17.860Z,2.80
2018-04-14T16:19:45.925Z,2.40
2018-04-14T16:22:14.995Z,3.07
2018-04-14T16:24:43.085Z,2.57
2018-04-14T16:27:11.153Z,4.03
2018-04-14T16:29:39.240Z,10.20
2018-04-14T16:32:07.295Z,7.53
2018-04-14T16:34:35.370Z,6.57
2018-04-14T16:37:03.425Z,5.20
2018-04-14T16:39:31.499Z,2.97
2018-04-14T16:41:59.556Z,2.57
2018-04-14T16:44:28.386Z,2.10
2018-04-14T16:46:56.626Z,1.97
2018-04-14T16:49:24.669Z,2.60
2018-04-14T16:51:52.727Z,3.13
2018-04-14T16:54:20.792Z,3.20
2018-04-14T16:56:48.866Z,3.03
2018-04-14T16:59:16.923Z,2.40
2018-04-14T17:01:44.976Z,2.13
2018-04-14T17:04:13.052Z,3.17
2018-04-14T17:06:41.103Z,3.20
2018-04-14T17:09:09.163Z,2.43
2018-04-14T17:11:37.243Z,3.13
2018-04-14T17:14:05.294Z,2.70
2018-04-14T17:16:33.370Z,5.13
2018-04-14T17:19:01.420Z,2.70
2018-04-14T17:21:29.487Z,3.13
2018-04-14T17:23:57.564Z,4.20
2018-04-14T17:26:25.598Z,2.50
2018-04-14T17:28:53.662Z,2.70
2018-04-14T17:31:21.727Z,3.03
2018-04-14T17:33:49.787Z,2.80
2018-04-14T17:36:17.991Z,2.20
2018-04-14T17:38:46.047Z,1.90
2018-04-14T17:41:14.787Z,3.27
2018-04-14T17:43:42.841Z,2.90
2018-04-14T17:46:10.912Z,1.70
2018-04-14T17:48:38.971Z,1.90
2018-04-14T17:51:07.036Z,1.90
2018-04-14T17:53:35.101Z,2.20
2018-04-14T17:56:03.193Z,2.10
2018-04-14T17:58:31.260Z,2.50
2018-04-14T18:00:59.376Z,1.97
2018-04-14T18:03:27.443Z,2.40
2018-04-14T18:05:55.532Z,2.20
2018-04-14T18:08:23.599Z,2.97
2018-04-14T18:10:51.711Z,2.80
2018-04-14T18:13:19.751Z,3.07
2018-04-14T18:15:48.064Z,3.73
2018-04-14T18:18:16.117Z,4.10
2018-04-14T18:20:44.353Z,5.70
2018-04-14T18:23:12.423Z,4.30
2018-04-14T18:25:42.166Z,6.10
2018-04-14T18:28:10.232Z,10.83
2018-04-14T18:30:38.300Z,4.20
2018-04-14T18:33:06.377Z,7.03
2018-04-14T18:35:34.523Z,7.40
2018-04-14T18:38:02.575Z,4.67
2018-04-14T18:40:30.635Z,3.03
2018-04-14T18:42:59.458Z,4.00
2018-04-14T18:45:27.544Z,7.00
2018-04-14T18:47:55.597Z,4.50
2018-04-14T18:50:23.672Z,5.33
2018-04-14T18:52:51.735Z,5.83
2018-04-14T18:55:22.367Z,6.90
2018-04-14T18:57:50.446Z,7.87
2018-04-14T19:00:18.521Z,4.23
2018-04-14T19:02:46.611Z,3.83
2018-04-14T19:05:14.631Z,2.87
2018-04-14T19:07:43.456Z,3.30
2018-04-14T19:10:11.504Z,3.10
2018-04-14T19:12:39.580Z,3.73
2018-04-14T19:15:07.631Z,3.73
2018-04-14T19:17:36.473Z,4.10
2018-04-14T19:20:04.523Z,9.10
2018-04-14T19:22:32.579Z,6.83
2018-04-14T19:25:00.631Z,3.70
2018-04-14T19:27:28.688Z,4.40
2018-04-14T19:29:57.521Z,5.10
2018-04-14T19:32:25.601Z,4.77
2018-04-14T19:34:53.653Z,4.27
2018-04-14T19:37:21.723Z,4.40
2018-04-14T19:39:49.810Z,4.50
2018-04-14T19:42:17.885Z,4.43
2018-04-14T19:44:45.935Z,4.80
2018-04-14T19:47:14.007Z,5.20
2018-04-14T19:49:43.306Z,5.40
2018-04-14T19:52:11.379Z,5.40
2018-04-14T19:54:39.554Z,5.07
2018-04-14T19:57:07.623Z,5.43
2018-04-14T19:59:35.676Z,5.57
2018-04-14T20:02:04.513Z,6.27
2018-04-14T20:04:32.581Z,6.30
2018-04-14T20:07:00.665Z,5.90
2018-04-14T20:09:28.715Z,6.57
2018-04-14T20:11:56.783Z,6.20
2018-04-14T20:14:24.838Z,6.80
2018-04-14T20:16:52.924Z,8.20
2018-04-14T20:19:20.985Z,7.00
2018-04-14T20:21:49.060Z,6.70
2018-04-14T20:24:17.132Z,7.60
2018-04-14T20:26:45.207Z,7.57
2018-04-14T20:29:13.277Z,7.60
2018-04-14T20:31:41.356Z,6.20
2018-04-14T20:34:09.430Z,6.00
2018-04-14T20:36:37.501Z,6.60
2018-04-14T20:39:06.243Z,7.10
2018-04-14T20:41:35.081Z,9.73
2018-04-14T20:44:03.153Z,7.97
2018-04-14T20:46:31.190Z,7.43
2018-04-14T20:48:59.257Z,7.60
2018-04-14T20:51:27.372Z,7.67
2018-04-14T20:53:55.445Z,6.50
2018-04-14T20:56:23.505Z,6.40
2018-04-14T20:58:51.567Z,6.60
2018-04-14T21:01:19.623Z,7.00
2018-04-14T21:03:47.701Z,21.13
2018-04-14T21:06:15.759Z,6.93
2018-04-14T21:08:43.841Z,14.97
2018-04-14T21:11:13.348Z,21.73
2018-04-14T21:13:41.432Z,57.83
2018-04-14T21:16:11.307Z,10.47
2018-04-14T21:18:39.406Z,8.17
2018-04-14T21:21:07.467Z,7.40
2018-04-14T21:23:35.532Z,7.70
2018-04-14T21:26:03.616Z,8.17
2018-04-14T21:28:31.688Z,11.10
2018-04-14T21:30:59.769Z,9.47
2018-04-14T21:33:27.831Z,9.07
2018-04-14T21:35:55.894Z,7.50
2018-04-14T21:38:23.971Z,7.67
2018-04-14T21:40:52.041Z,7.37
2018-04-14T21:43:20.109Z,7.87
2018-04-14T21:45:48.175Z,8.80
2018-04-14T21:48:16.246Z,9.70
2018-04-14T21:50:44.320Z,10.43
2018-04-14T21:53:12.389Z,9.63
2018-04-14T21:55:40.449Z,7.47
2018-04-14T21:58:08.511Z,7.63
2018-04-14T22:00:36.559Z,7.90
2018-04-14T22:03:04.622Z,7.60
2018-04-14T22:05:32.686Z,7.43
2018-04-14T22:08:00.753Z,7.30
2018-04-14T22:10:28.813Z,7.50
2018-04-14T22:12:56.888Z,8.00
2018-04-14T22:15:24.966Z,8.83
2018-04-14T22:17:53.032Z,8.00
2018-04-14T22:20:21.105Z,7.60
2018-04-14T22:22:49.165Z,7.80
2018-04-14T22:25:17.213Z,6.80
2018-04-14T22:27:45.271Z,8.27
2018-04-14T22:30:13.328Z,8.30
2018-04-14T22:32:42.196Z,7.93
2018-04-14T22:35:10.267Z,8.83
2018-04-14T22:37:38.402Z,11.70
2018-04-14T22:40:06.409Z,11.93
2018-04-14T22:42:34.472Z,8.63
2018-04-14T22:45:02.530Z,8.77
2018-04-14T22:47:30.593Z,8.63
2018-04-14T22:49:58.661Z,8.17
2018-04-14T22:52:26.726Z,9.03
2018-04-14T22:54:54.809Z,8.03
2018-04-14T22:57:22.858Z,8.77
2018-04-14T22:59:50.940Z,11.57
2018-04-14T23:02:19.004Z,15.70
2018-04-14T23:04:47.074Z,14.43
2018-04-14T23:07:15.235Z,15.47
2018-04-14T23:09:43.313Z,12.17
2018-04-14T23:12:11.384Z,11.67
2018-04-14T23:14:39.463Z,10.03
2018-04-14T23:17:07.528Z,11.43
2018-04-14T23:19:35.609Z,12.93
2018-04-14T23:22:03.699Z,15.57
2018-04-14T23:24:31.758Z,13.53
2018-04-14T23:26:59.828Z,10.77
2018-04-14T23:29:27.899Z,10.50
2018-04-14T23:31:56.037Z,8.80
2018-04-14T23:34:24.108Z,7.77
2018-04-14T23:36:52.155Z,8.07
2018-04-14T23:39:20.987Z,8.73
2018-04-14T23:41:49.642Z,10.43
2018-04-14T23:44:18.661Z,9.23
2018-04-14T23:46:46.724Z,10.40
2018-04-14T23:49:14.796Z,9.20
2018-04-14T23:51:42.846Z,7.93
2018-04-14T23:54:11.680Z,8.33
2018-04-14T23:56:39.761Z,8.77
2018-04-14T23:59:07.808Z,8.83
